Historyczne dane pomiarowe

Dodano dane terminowe – wersja testowa.

Dane z okresu 1951-2019

Wersja bazy: 1.34 [2019-03-16, lista zmian], aktualizacja planowana na 2019-04-15

Dane meteo z obszaru Polski uzyskane na podstawie danych udostępnionych przez Instytut Meteorologii i Gospodarki Wodnej – Państwowy Instytut Badawczy.

 

Wybierz Datę:    

       

TemperaturaWilgotnośćWiatrCiśnienieOpadyŚniegCzas trwania zjawisk
 Stacja t tx tn tng RH VA  wxwx mslp ppp RRR   cm mm wxwxwxwxwxwxwx
2019-07-01 24.2 31.0 19.5--- 3.0 2.3---- 0.0------------
2019-06-30 26.4 37.2 12.7 2.6 45.5- 1.0 1.3---- 0.0------------
2019-06-29 21.7 29.3 10.9 1.0 57.0- 1.3 1.3---- 0.0------------
2019-06-28 19.2 25.2 13.8 2.0 69.0- 3.0 2.3---- 0.0------------
2019-06-27 21.6 29.7 17.5 8.9 56.8- 1.3 6.7---- 0.0------------
2019-06-26 28.5 36.3 20.4 10.4 52.3- 1.7 1.0---- 0.0------------
2019-06-25 24.6 33.2 13.8 4.5 54.5- 3.0 3.0---- 0.0------------
2019-06-24 19.0 29.3 9.9 1.0 43.0- 1.3 0.7---- 0.0------------
2019-06-23 20.3 27.3 11.4 1.5 53.0- 1.0 2.3---- 0.0------------
2019-06-22 18.7 26.6 11.7 1.5 50.8- 2.3 1.0---- 0.0------------
2019-06-21 21.6 26.1 16.6 7.1 66.8- 2.3 1.3---- 0.0------------
2019-06-20 24.7 29.3 20.5 9.9 55.5- 1.7 0.3---- 0.0------------
2019-06-19 24.2 31.3 14.2 5.1 53.8- 2.0 1.0---- 0.0------------
2019-06-18 22.4 28.3 11.9 3.0 46.5- 1.3 2.0---- 0.0------------
2019-06-17 19.7 26.2 11.5 2.4 54.0- 2.0 1.0---- 0.0------------
2019-06-16 21.6 28.8 18.4 10.1 67.0- 4.7 1.3---- 0.0------------
2019-06-15 25.8 34.2 18.3 11.0 65.3- 4.0 3.3---- 0.0------------
2019-06-14 20.9 28.3 14.2 5.9 68.0- 4.3 0.7---- 0.0------------
2019-06-13 21.7 29.8 16.9 9.4 85.0- 5.0 1.3---- 1.4------------
2019-06-12 27.0 35.3 18.5 9.9 56.5- 2.7 1.0---- 3.2------------
2019-06-11 25.8 34.1 18.1 10.9 61.8- 1.7 1.0---- 0.0------------
2019-06-10 23.7 30.3 16.5 9.4 57.8- 4.0 2.0---- 0.0------------
2019-06-09 16.9 25.7 9.4 1.0 41.8- 3.0 0.3---- 0.0------------
2019-06-08 19.6 23.8 14.2 6.5 62.3- 2.7 1.7---- 0.0------------
2019-06-07 19.1 23.5 15.4 8.9 84.0- 4.3 1.3---- 0.0------------
2019-06-06 22.1 29.2 16.6 7.5 65.3- 3.0 4.0---- 2.3------------
2019-06-05 23.8 30.1 16.6 8.0 53.5- 2.3 3.3---- 0.0------------
2019-06-04 23.9 29.7 15.6 7.4 51.8- 1.0 1.3---- 0.0------------
2019-06-03 24.8 30.6 17.9 7.5 48.0- 1.0 1.7---- 0.0------------
2019-06-02 19.7 27.5 13.3 5.4 58.5- 1.3 0.3---- 0.0------------
2019-06-01 19.9 26.2 14.6 6.9 78.0- 1.7 0.0---- 0.0------------
2019-05-31 18.4 23.3 14.2 5.4 81.5- 5.3 0.3---- 0.9------------
2019-05-30 13.5 20.2 2.9 -4.0 51.8- 1.3 0.0---- 0.0------------
2019-05-29 11.8 16.1 6.9 0.0 77.5- 3.0 2.0---- 0.0------------
2019-05-28 15.3 19.4 13.8 5.5 95.5- 7.3 0.7---- 5.8------------
2019-05-27 18.3 22.1 15.2 7.7 68.8- 6.0 1.3---- 3.4------------
2019-05-26 15.6 21.3 9.1 2.5 74.3- 3.0 1.0---- 0.0------------
2019-05-25 14.8 19.4 11.8 4.9 72.3- 3.0 2.0---- 0.0------------
2019-05-24 14.7 21.2 5.9 0.0 67.5- 2.0 0.0---- 0.0------------
2019-05-23 13.2 16.1 11.0 5.5 77.8- 4.0 3.7---- 0.0------------
2019-05-22 15.7 19.4 14.2 9.4 89.5- 7.7 5.3---- 4.8------------
2019-05-21 18.0 26.2 9.4 2.5 83.3- 5.3 1.3---- 24.6------------
2019-05-20 17.3 23.3 10.2 3.5 78.8- 2.7 0.7---- 0.0------------
2019-05-19 16.9 24.1 8.2 1.6 80.5- 3.7 1.7---- 0.3------------
2019-05-18 15.6 22.7 7.4 1.5 84.5- 3.0 1.3---- 0.0------------
2019-05-17 13.3 17.2 9.9 3.5 96.0- 5.7 0.7---- 0.4------------
2019-05-16 10.9 13.4 7.9 3.0 97.8- 7.0 0.7---- 10.3------------
2019-05-15 8.6 11.8 5.6 0.0 84.5- 8.0 1.0---- 17.2------------
2019-05-14 9.0 15.1 2.0 -5.0 76.5- 4.7 4.7---- 1.2------------
2019-05-13 9.2 13.9 6.2 0.0 64.8- 2.7 3.3---- 0.1------------
2019-05-12 9.6 14.5 5.8 0.5 86.5- 5.3 2.0---- 0.0------------
2019-05-11 10.8 16.3 6.0 0.0 86.5- 5.7 0.7---- 7.9------------
2019-05-10 11.3 17.1 4.7 -1.2 91.5- 4.3 1.0---- 3.4------------
2019-05-09 11.5 14.3 9.6 3.9 96.3- 5.7 1.0---- 4.0------------
2019-05-08 9.6 17.2 0.9 -6.0100.0- 2.7 3.0---- 1.5------------
2019-05-07 8.3 13.7 4.9 -3.0 76.3- 5.3 1.3---- 0.0------------
2019-05-06 5.7 12.7 -1.1 -7.0 78.3- 4.7 0.0---- 0.0------------
2019-05-05 5.9 12.7 -0.5 -7.0 85.0- 4.0 1.7---- 0.0------------
2019-05-04 7.0 9.0 6.3 0.5 95.0- 5.0 1.7---- 0.1------------
2019-05-03 8.7 12.7 6.1 0.5 98.5- 4.0 3.0---- 0.0------------
128.8 ms

 

Źródłem pochodzenia danych jest Instytut Meteorologii i Gospodarki Wodnej – Państwowy Instytut Badawczy. Dane Instytutu Meteorologii i Gospodarki Wodnej – Państwowego Instytutu Badawczego zostały przetworzone.

Dane źródłowe można odnaleźć na stronie https://dane.imgw.pl